Terminal Aerodrome Forecast
Issued by NWS Charleston, WV

Current Version | Previous Version | Text Only | Print | Product List | Glossary Off
Versions: 1 2 3 4 5 6 7 8 9 10 11 12 13 14 15 16 17 18 19 20 21 22 23

000
FTUS41 KRLX 240400 AAC
TAFPKB
TAF AMD
KPKB 240406Z 2404/2424 VRB03KT 1SM -SN BR BKN002 OVC010
      TEMPO 2404/2406 1/2SM SN FG BKN002 OVC008
     FM240900 VRB04KT 3SM -SN BR OVC010
     FM241000 32004KT 5SM -SN BR BKN015
     FM241200 32004KT 6SM BR BKN015=

USA.gov is the U.S. government's official web portal to all federal, state and local government web resources and services.